createdAt,value
2023-02-17T00:03:27.170Z,1.82
2023-02-17T00:08:35.333Z,1.85
2023-02-17T00:13:42.725Z,1.86
2023-02-17T00:18:49.890Z,1.89
2023-02-17T00:23:58.739Z,1.92
2023-02-17T00:29:05.263Z,1.95
2023-02-17T00:34:12.070Z,1.96
2023-02-17T00:39:20.802Z,2.01
2023-02-17T00:44:28.695Z,2.05
2023-02-17T00:49:35.580Z,2.09
2023-02-17T00:54:43.626Z,2.13
2023-02-17T00:59:51.119Z,2.16
2023-02-17T01:04:57.600Z,2.16
2023-02-17T01:10:06.105Z,2.18
2023-02-17T01:15:14.283Z,2.20
2023-02-17T01:20:24.244Z,2.24
2023-02-17T01:25:32.697Z,2.24
2023-02-17T01:30:39.525Z,2.26
2023-02-17T01:35:47.834Z,2.30
2023-02-17T01:40:56.264Z,2.32
2023-02-17T01:46:05.043Z,2.36
2023-02-17T01:51:18.797Z,2.38
2023-02-17T01:56:28.705Z,2.40
2023-02-17T02:01:38.231Z,2.40
2023-02-17T02:06:46.874Z,2.43
2023-02-17T02:11:55.370Z,2.43
2023-02-17T02:17:12.527Z,2.48
2023-02-17T02:22:54.733Z,2.49
2023-02-17T02:28:18.058Z,2.53
2023-02-17T02:33:35.254Z,2.53
2023-02-17T02:38:49.597Z,2.54
2023-02-17T02:43:56.600Z,2.56
2023-02-17T02:49:06.369Z,2.63
2023-02-17T02:54:48.845Z,2.65
2023-02-17T03:00:14.716Z,2.68
2023-02-17T03:05:34.502Z,2.66
2023-02-17T03:10:50.113Z,2.66
2023-02-17T03:15:57.065Z,2.68
2023-02-17T03:21:14.119Z,2.69
2023-02-17T03:26:21.518Z,2.72
2023-02-17T03:31:30.631Z,2.74
2023-02-17T03:36:38.511Z,2.77
2023-02-17T03:41:45.004Z,2.75
2023-02-17T03:46:51.327Z,2.75
2023-02-17T03:51:59.788Z,2.80
2023-02-17T03:57:06.622Z,2.82
2023-02-17T04:02:12.989Z,2.84
2023-02-17T04:07:20.754Z,2.85
2023-02-17T04:12:27.307Z,2.85
2023-02-17T04:17:33.810Z,2.86
2023-02-17T04:22:41.999Z,2.88
2023-02-17T04:27:48.442Z,2.92
2023-02-17T04:32:54.617Z,2.94
2023-02-17T04:38:02.503Z,2.94
2023-02-17T04:43:08.880Z,2.92
2023-02-17T04:48:15.086Z,2.93
2023-02-17T04:53:22.960Z,2.96
2023-02-17T04:58:29.340Z,2.96
2023-02-17T05:03:35.622Z,2.96
2023-02-17T05:08:43.636Z,2.97
2023-02-17T05:13:50.058Z,2.95
2023-02-17T05:18:56.501Z,2.97
2023-02-17T05:24:04.427Z,2.95
2023-02-17T05:29:10.883Z,2.95
2023-02-17T05:34:17.328Z,2.94
2023-02-17T05:39:25.154Z,2.97
2023-02-17T05:44:31.610Z,3.00
2023-02-17T05:49:37.798Z,3.00
2023-02-17T05:54:45.581Z,3.01
2023-02-17T05:59:51.832Z,2.99
2023-02-17T06:04:58.373Z,3.00
2023-02-17T06:10:07.850Z,2.98
2023-02-17T06:15:14.429Z,3.01
2023-02-17T06:20:21.341Z,3.03
2023-02-17T06:25:29.396Z,3.05
2023-02-17T06:30:36.115Z,3.08
2023-02-17T06:35:42.420Z,3.14
2023-02-17T06:40:50.395Z,3.15
2023-02-17T06:45:56.990Z,3.12
2023-02-17T06:51:03.586Z,3.18
2023-02-17T06:56:11.575Z,3.20
2023-02-17T07:01:20.320Z,3.24
2023-02-17T07:06:28.492Z,3.29
2023-02-17T07:11:37.213Z,3.30
2023-02-17T07:16:43.969Z,3.32
2023-02-17T07:21:50.373Z,3.38
2023-02-17T07:26:58.135Z,3.38
2023-02-17T07:32:05.185Z,3.43
2023-02-17T07:37:11.701Z,3.47
2023-02-17T07:42:19.625Z,3.53
2023-02-17T07:47:26.794Z,3.58
2023-02-17T07:52:33.377Z,3.65
2023-02-17T07:57:41.359Z,3.69
2023-02-17T08:02:47.699Z,3.75
2023-02-17T08:08:14.319Z,3.77
2023-02-17T08:13:22.188Z,3.83
2023-02-17T08:18:30.585Z,3.89
2023-02-17T08:23:38.747Z,3.94
2023-02-17T08:28:47.230Z,3.99
2023-02-17T08:33:54.064Z,4.02
2023-02-17T08:39:01.830Z,4.08
2023-02-17T08:44:13.953Z,4.16
2023-02-17T08:49:23.021Z,4.26
2023-02-17T08:54:29.305Z,4.25
2023-02-17T08:59:37.091Z,4.27
2023-02-17T09:04:43.694Z,4.23
2023-02-17T09:09:49.995Z,4.25
2023-02-17T09:14:57.898Z,4.23
2023-02-17T09:20:11.228Z,4.27
2023-02-17T09:26:02.896Z,4.25
2023-02-17T09:31:28.348Z,4.27
2023-02-17T09:36:40.196Z,4.33
2023-02-17T09:41:50.293Z,4.37
2023-02-17T09:47:03.841Z,4.48
2023-02-17T09:52:15.888Z,4.52
2023-02-17T09:57:28.854Z,4.56
2023-02-17T10:02:48.541Z,4.61
2023-02-17T10:08:03.861Z,4.65
2023-02-17T10:13:12.068Z,4.67
2023-02-17T10:18:29.854Z,4.73
2023-02-17T10:23:37.089Z,4.78
2023-02-17T10:29:07.390Z,4.89
2023-02-17T10:34:28.186Z,4.93
2023-02-17T10:39:48.682Z,4.99
2023-02-17T10:45:01.318Z,5.01
2023-02-17T10:50:21.824Z,5.00
2023-02-17T10:55:39.278Z,5.06
2023-02-17T11:00:49.332Z,5.10
2023-02-17T11:06:00.623Z,5.18
2023-02-17T11:11:16.185Z,5.20
2023-02-17T11:16:27.834Z,5.25
2023-02-17T11:21:36.651Z,5.30
2023-02-17T11:26:44.861Z,5.34
2023-02-17T11:31:58.857Z,5.36
2023-02-17T11:37:24.782Z,5.38
2023-02-17T11:42:34.468Z,5.38
2023-02-17T11:48:21.997Z,5.40
2023-02-17T11:53:48.858Z,5.41
2023-02-17T11:59:31.061Z,5.41
2023-02-17T12:04:44.092Z,5.42
2023-02-17T12:10:06.026Z,5.45
2023-02-17T12:15:33.174Z,5.42
2023-02-17T12:20:52.535Z,5.47
2023-02-17T12:26:06.267Z,5.49
2023-02-17T12:31:27.384Z,5.50
2023-02-17T12:36:38.748Z,5.52
2023-02-17T12:41:55.948Z,5.50
2023-02-17T12:47:11.728Z,5.52
2023-02-17T12:52:23.991Z,5.51
2023-02-17T12:57:42.808Z,5.51
2023-02-17T13:02:49.581Z,5.52
2023-02-17T13:08:02.166Z,5.53
2023-02-17T13:13:15.761Z,5.56
2023-02-17T13:18:32.864Z,5.57
2023-02-17T13:23:42.109Z,5.58
2023-02-17T13:28:51.310Z,5.59
2023-02-17T13:34:01.079Z,5.58
2023-02-17T13:39:29.164Z,5.61
2023-02-17T13:44:42.606Z,5.62
2023-02-17T13:49:55.504Z,5.63
2023-02-17T13:55:04.874Z,5.62
2023-02-17T14:00:25.286Z,5.67
2023-02-17T14:05:42.208Z,5.68
2023-02-17T14:10:49.161Z,5.69
2023-02-17T14:16:00.295Z,5.74
2023-02-17T14:21:10.893Z,5.76
2023-02-17T14:26:40.103Z,5.76
2023-02-17T14:31:51.609Z,5.78
2023-02-17T14:37:09.976Z,5.80
2023-02-17T14:42:16.434Z,5.81
2023-02-17T14:47:26.255Z,5.83
2023-02-17T14:52:33.049Z,5.83
2023-02-17T14:57:40.793Z,5.83
2023-02-17T15:02:49.250Z,5.84
2023-02-17T15:07:55.982Z,5.84
2023-02-17T15:13:03.555Z,5.85
2023-02-17T15:18:14.131Z,5.86
2023-02-17T15:23:23.496Z,5.88
2023-02-17T15:28:30.734Z,5.88
2023-02-17T15:33:42.492Z,5.90
2023-02-17T15:38:50.101Z,5.90
2023-02-17T15:43:59.389Z,5.91
2023-02-17T15:49:08.738Z,5.89
2023-02-17T15:54:19.528Z,5.88
2023-02-17T15:59:30.176Z,5.88
2023-02-17T16:04:38.558Z,5.87
2023-02-17T16:09:47.424Z,5.90
2023-02-17T16:14:55.809Z,5.88
2023-02-17T16:20:06.057Z,5.90
2023-02-17T16:25:14.977Z,5.90
2023-02-17T16:30:25.857Z,5.88
2023-02-17T16:35:35.522Z,5.92
2023-02-17T16:40:49.081Z,5.92
2023-02-17T16:45:59.642Z,5.93
2023-02-17T16:51:11.610Z,5.94
2023-02-17T16:56:23.263Z,5.93
2023-02-17T17:01:31.226Z,5.97
2023-02-17T17:06:59.827Z,5.98
2023-02-17T17:12:08.844Z,5.97
2023-02-17T17:17:21.729Z,5.98
2023-02-17T17:22:33.074Z,5.98
2023-02-17T17:27:42.191Z,6.00
2023-02-17T17:32:50.591Z,6.00
2023-02-17T17:38:00.960Z,6.00
2023-02-17T17:43:08.400Z,6.03
2023-02-17T17:48:19.828Z,6.05
2023-02-17T17:53:32.205Z,6.09
2023-02-17T17:58:40.581Z,6.08
2023-02-17T18:03:49.663Z,6.13
2023-02-17T18:09:05.755Z,6.12
2023-02-17T18:14:18.327Z,6.19
2023-02-17T18:19:28.411Z,6.19
2023-02-17T18:24:40.545Z,6.20
2023-02-17T18:29:54.177Z,6.27
2023-02-17T18:35:03.679Z,6.30
2023-02-17T18:40:15.507Z,6.27
2023-02-17T18:45:28.565Z,6.32
2023-02-17T18:50:38.405Z,6.31
2023-02-17T18:55:48.315Z,6.34
2023-02-17T19:00:58.845Z,6.37
2023-02-17T19:06:16.948Z,6.43
2023-02-17T19:11:33.554Z,6.47
2023-02-17T19:16:45.459Z,6.53
2023-02-17T19:21:55.661Z,6.57
2023-02-17T19:27:06.822Z,6.57
2023-02-17T19:32:15.543Z,6.60
2023-02-17T19:37:25.167Z,6.67
2023-02-17T19:42:37.473Z,6.69
2023-02-17T19:47:51.710Z,6.71
2023-02-17T19:53:04.518Z,6.78
2023-02-17T19:58:18.756Z,6.83
2023-02-17T20:03:27.231Z,6.82
2023-02-17T20:08:37.260Z,6.85
2023-02-17T20:13:51.695Z,6.88
2023-02-17T20:19:03.655Z,6.96
2023-02-17T20:24:12.406Z,7.02
2023-02-17T20:29:32.342Z,7.04
2023-02-17T20:34:44.368Z,7.04
2023-02-17T20:39:53.168Z,7.10
2023-02-17T20:45:04.315Z,7.11
2023-02-17T20:50:17.132Z,7.13
2023-02-17T20:55:29.095Z,7.11
2023-02-17T21:00:38.284Z,7.08
2023-02-17T21:05:46.924Z,7.09
2023-02-17T21:10:57.412Z,7.11
2023-02-17T21:16:12.769Z,7.16
2023-02-17T21:21:27.233Z,7.15
2023-02-17T21:26:36.513Z,7.20
2023-02-17T21:31:45.131Z,7.24
2023-02-17T21:36:52.943Z,7.24
2023-02-17T21:42:00.752Z,7.25
2023-02-17T21:47:09.999Z,7.12
2023-02-17T21:52:17.025Z,6.99
2023-02-17T21:57:23.766Z,6.96
2023-02-17T22:02:35.210Z,6.91
2023-02-17T22:07:42.324Z,6.88
2023-02-17T22:12:49.852Z,6.84
2023-02-17T22:17:58.806Z,6.80
2023-02-17T22:23:05.249Z,6.74
2023-02-17T22:28:14.070Z,6.72
2023-02-17T22:33:22.295Z,6.67
2023-02-17T22:38:29.134Z,6.66
2023-02-17T22:43:37.324Z,6.64
2023-02-17T22:48:46.816Z,6.62
2023-02-17T22:53:53.888Z,6.60
2023-02-17T22:59:01.857Z,6.54
2023-02-17T23:04:09.870Z,6.53
2023-02-17T23:09:19.842Z,6.47
2023-02-17T23:14:30.190Z,6.45
2023-02-17T23:19:39.189Z,6.41
2023-02-17T23:24:45.385Z,6.34
2023-02-17T23:29:51.617Z,6.31
2023-02-17T23:34:59.434Z,6.27
2023-02-17T23:40:06.721Z,6.24
2023-02-17T23:45:13.848Z,6.20
2023-02-17T23:50:22.021Z,6.18
2023-02-17T23:55:28.526Z,6.14
